sensor_id;sensor_type;location;lat;lon;timestamp;P1;durP1;ratioP1;P2;durP2;ratioP2
2001;SDS011;1003;48.002;7.788;2023-02-05T00:01:29;13.87;;;7.40;;
2001;SDS011;1003;48.002;7.788;2023-02-05T00:03:56;12.53;;;7.47;;
2001;SDS011;1003;48.002;7.788;2023-02-05T00:06:24;10.80;;;7.20;;
2001;SDS011;1003;48.002;7.788;2023-02-05T00:08:52;10.20;;;6.57;;
2001;SDS011;1003;48.002;7.788;2023-02-05T00:11:21;14.70;;;7.03;;
2001;SDS011;1003;48.002;7.788;2023-02-05T00:13:48;12.60;;;6.93;;
2001;SDS011;1003;48.002;7.788;2023-02-05T00:16:16;10.40;;;6.93;;
2001;SDS011;1003;48.002;7.788;2023-02-05T00:18:46;13.73;;;7.30;;
2001;SDS011;1003;48.002;7.788;2023-02-05T00:21:14;12.77;;;7.40;;
2001;SDS011;1003;48.002;7.788;2023-02-05T00:23:43;12.30;;;6.87;;
2001;SDS011;1003;48.002;7.788;2023-02-05T00:26:12;13.07;;;7.50;;
2001;SDS011;1003;48.002;7.788;2023-02-05T00:28:40;11.50;;;7.07;;
2001;SDS011;1003;48.002;7.788;2023-02-05T00:31:08;12.70;;;7.03;;
2001;SDS011;1003;48.002;7.788;2023-02-05T00:33:37;11.80;;;6.80;;
2001;SDS011;1003;48.002;7.788;2023-02-05T00:36:04;13.33;;;7.03;;
2001;SDS011;1003;48.002;7.788;2023-02-05T00:38:32;15.27;;;7.33;;
2001;SDS011;1003;48.002;7.788;2023-02-05T00:41:00;14.43;;;7.60;;
2001;SDS011;1003;48.002;7.788;2023-02-05T00:43:28;13.80;;;7.50;;
2001;SDS011;1003;48.002;7.788;2023-02-05T00:45:56;14.60;;;7.60;;
2001;SDS011;1003;48.002;7.788;2023-02-05T00:48:23;13.43;;;7.93;;
2001;SDS011;1003;48.002;7.788;2023-02-05T00:50:50;15.10;;;7.40;;
2001;SDS011;1003;48.002;7.788;2023-02-05T00:53:19;11.73;;;7.50;;
2001;SDS011;1003;48.002;7.788;2023-02-05T00:55:48;16.03;;;7.60;;
2001;SDS011;1003;48.002;7.788;2023-02-05T00:58:15;11.47;;;6.90;;
2001;SDS011;1003;48.002;7.788;2023-02-05T01:00:44;11.83;;;6.77;;
2001;SDS011;1003;48.002;7.788;2023-02-05T01:03:12;12.27;;;6.57;;
2001;SDS011;1003;48.002;7.788;2023-02-05T01:05:39;11.40;;;5.87;;
2001;SDS011;1003;48.002;7.788;2023-02-05T01:08:07;11.33;;;5.43;;
2001;SDS011;1003;48.002;7.788;2023-02-05T01:10:35;8.83;;;5.37;;
2001;SDS011;1003;48.002;7.788;2023-02-05T01:13:03;9.43;;;5.57;;
2001;SDS011;1003;48.002;7.788;2023-02-05T01:15:31;9.13;;;4.30;;
2001;SDS011;1003;48.002;7.788;2023-02-05T01:18:00;7.23;;;4.00;;
2001;SDS011;1003;48.002;7.788;2023-02-05T01:20:27;10.43;;;4.67;;
2001;SDS011;1003;48.002;7.788;2023-02-05T01:22:54;7.87;;;4.80;;
2001;SDS011;1003;48.002;7.788;2023-02-05T01:25:21;10.33;;;5.13;;
2001;SDS011;1003;48.002;7.788;2023-02-05T01:27:48;6.87;;;4.90;;
2001;SDS011;1003;48.002;7.788;2023-02-05T01:30:15;9.03;;;5.07;;
2001;SDS011;1003;48.002;7.788;2023-02-05T01:32:42;10.50;;;5.57;;
2001;SDS011;1003;48.002;7.788;2023-02-05T01:35:11;8.30;;;5.13;;
2001;SDS011;1003;48.002;7.788;2023-02-05T01:37:38;8.70;;;4.97;;
2001;SDS011;1003;48.002;7.788;2023-02-05T01:40:05;8.33;;;5.50;;
2001;SDS011;1003;48.002;7.788;2023-02-05T01:42:33;11.73;;;6.77;;
2001;SDS011;1003;48.002;7.788;2023-02-05T01:48:15;8.33;;;5.73;;
2001;SDS011;1003;48.002;7.788;2023-02-05T01:50:49;9.00;;;5.10;;
2001;SDS011;1003;48.002;7.788;2023-02-05T01:53:21;7.80;;;4.93;;
2001;SDS011;1003;48.002;7.788;2023-02-05T01:55:54;8.70;;;5.00;;
2001;SDS011;1003;48.002;7.788;2023-02-05T01:58:27;8.80;;;4.67;;
2001;SDS011;1003;48.002;7.788;2023-02-05T02:00:59;7.23;;;4.43;;
2001;SDS011;1003;48.002;7.788;2023-02-05T02:03:26;7.40;;;4.20;;
2001;SDS011;1003;48.002;7.788;2023-02-05T02:05:57;7.37;;;4.00;;
2001;SDS011;1003;48.002;7.788;2023-02-05T02:08:26;11.13;;;4.23;;
2001;SDS011;1003;48.002;7.788;2023-02-05T02:10:55;7.50;;;4.00;;
2001;SDS011;1003;48.002;7.788;2023-02-05T02:13:26;9.37;;;3.90;;
2001;SDS011;1003;48.002;7.788;2023-02-05T02:15:56;8.00;;;4.87;;
2001;SDS011;1003;48.002;7.788;2023-02-05T02:18:23;10.80;;;5.43;;
2001;SDS011;1003;48.002;7.788;2023-02-05T02:21:02;8.80;;;4.63;;
2001;SDS011;1003;48.002;7.788;2023-02-05T02:23:49;7.13;;;4.13;;
2001;SDS011;1003;48.002;7.788;2023-02-05T02:26:42;14.47;;;6.63;;
2001;SDS011;1003;48.002;7.788;2023-02-05T02:29:34;14.90;;;6.70;;
2001;SDS011;1003;48.002;7.788;2023-02-05T02:32:12;15.23;;;6.30;;
2001;SDS011;1003;48.002;7.788;2023-02-05T02:34:46;14.00;;;5.87;;
2001;SDS011;1003;48.002;7.788;2023-02-05T02:37:21;8.07;;;4.30;;
2001;SDS011;1003;48.002;7.788;2023-02-05T02:40:00;8.70;;;3.43;;
2001;SDS011;1003;48.002;7.788;2023-02-05T02:42:38;6.20;;;3.40;;
2001;SDS011;1003;48.002;7.788;2023-02-05T02:45:15;7.07;;;3.90;;
2001;SDS011;1003;48.002;7.788;2023-02-05T02:47:47;8.80;;;3.67;;
2001;SDS011;1003;48.002;7.788;2023-02-05T02:50:22;8.10;;;3.90;;
2001;SDS011;1003;48.002;7.788;2023-02-05T02:52:56;8.87;;;4.77;;
2001;SDS011;1003;48.002;7.788;2023-02-05T02:55:30;11.10;;;5.40;;
2001;SDS011;1003;48.002;7.788;2023-02-05T02:58:04;13.80;;;5.73;;
2001;SDS011;1003;48.002;7.788;2023-02-05T03:00:39;10.10;;;5.50;;
2001;SDS011;1003;48.002;7.788;2023-02-05T03:03:10;10.47;;;5.73;;
2001;SDS011;1003;48.002;7.788;2023-02-05T03:05:42;8.87;;;5.03;;
2001;SDS011;1003;48.002;7.788;2023-02-05T03:08:13;9.23;;;4.43;;
2001;SDS011;1003;48.002;7.788;2023-02-05T03:10:49;10.53;;;4.30;;
2001;SDS011;1003;48.002;7.788;2023-02-05T03:13:23;9.70;;;4.20;;
2001;SDS011;1003;48.002;7.788;2023-02-05T03:15:52;8.93;;;4.00;;
2001;SDS011;1003;48.002;7.788;2023-02-05T03:18:19;7.77;;;3.60;;
2001;SDS011;1003;48.002;7.788;2023-02-05T03:20:48;8.83;;;3.97;;
2001;SDS011;1003;48.002;7.788;2023-02-05T03:23:20;9.50;;;3.80;;
2001;SDS011;1003;48.002;7.788;2023-02-05T03:25:48;8.17;;;3.33;;
2001;SDS011;1003;48.002;7.788;2023-02-05T03:28:15;10.20;;;3.60;;
2001;SDS011;1003;48.002;7.788;2023-02-05T03:30:45;5.50;;;3.40;;
2001;SDS011;1003;48.002;7.788;2023-02-05T03:36:16;6.83;;;3.23;;
2001;SDS011;1003;48.002;7.788;2023-02-05T03:38:58;6.63;;;3.17;;
2001;SDS011;1003;48.002;7.788;2023-02-05T03:41:47;8.87;;;3.30;;
2001;SDS011;1003;48.002;7.788;2023-02-05T03:44:35;6.40;;;3.00;;
2001;SDS011;1003;48.002;7.788;2023-02-05T03:47:41;7.47;;;2.93;;
2001;SDS011;1003;48.002;7.788;2023-02-05T03:50:25;6.57;;;3.27;;
2001;SDS011;1003;48.002;7.788;2023-02-05T03:53:02;9.33;;;3.53;;
2001;SDS011;1003;48.002;7.788;2023-02-05T03:55:37;5.83;;;3.17;;
2001;SDS011;1003;48.002;7.788;2023-02-05T03:58:12;7.30;;;3.60;;
2001;SDS011;1003;48.002;7.788;2023-02-05T04:00:48;9.00;;;3.80;;
2001;SDS011;1003;48.002;7.788;2023-02-05T04:03:17;11.20;;;3.60;;
2001;SDS011;1003;48.002;7.788;2023-02-05T04:05:44;10.63;;;3.63;;
2001;SDS011;1003;48.002;7.788;2023-02-05T04:08:11;6.77;;;3.37;;
2001;SDS011;1003;48.002;7.788;2023-02-05T04:10:38;8.77;;;3.60;;
2001;SDS011;1003;48.002;7.788;2023-02-05T04:13:05;6.40;;;3.30;;
2001;SDS011;1003;48.002;7.788;2023-02-05T04:15:32;7.33;;;3.23;;
2001;SDS011;1003;48.002;7.788;2023-02-05T04:17:59;8.13;;;2.93;;
2001;SDS011;1003;48.002;7.788;2023-02-05T04:20:27;7.60;;;3.87;;
2001;SDS011;1003;48.002;7.788;2023-02-05T04:22:54;5.67;;;2.97;;
2001;SDS011;1003;48.002;7.788;2023-02-05T04:25:21;9.13;;;3.50;;
2001;SDS011;1003;48.002;7.788;2023-02-05T04:27:48;8.47;;;3.00;;
2001;SDS011;1003;48.002;7.788;2023-02-05T04:30:15;11.73;;;3.60;;
2001;SDS011;1003;48.002;7.788;2023-02-05T04:32:43;10.10;;;3.47;;
2001;SDS011;1003;48.002;7.788;2023-02-05T04:35:10;4.83;;;2.73;;
2001;SDS011;1003;48.002;7.788;2023-02-05T04:37:38;5.93;;;3.10;;
2001;SDS011;1003;48.002;7.788;2023-02-05T04:40:06;6.00;;;3.10;;
2001;SDS011;1003;48.002;7.788;2023-02-05T04:42:35;8.10;;;3.57;;
2001;SDS011;1003;48.002;7.788;2023-02-05T04:45:02;4.27;;;2.80;;
2001;SDS011;1003;48.002;7.788;2023-02-05T04:47:30;9.07;;;3.80;;
2001;SDS011;1003;48.002;7.788;2023-02-05T04:49:58;6.80;;;3.50;;
2001;SDS011;1003;48.002;7.788;2023-02-05T04:52:25;5.77;;;2.80;;
2001;SDS011;1003;48.002;7.788;2023-02-05T04:54:53;7.10;;;3.03;;
2001;SDS011;1003;48.002;7.788;2023-02-05T04:57:20;6.27;;;3.20;;
2001;SDS011;1003;48.002;7.788;2023-02-05T04:59:48;9.90;;;4.00;;
2001;SDS011;1003;48.002;7.788;2023-02-05T05:02:15;5.43;;;3.57;;
2001;SDS011;1003;48.002;7.788;2023-02-05T05:04:42;4.90;;;2.87;;
2001;SDS011;1003;48.002;7.788;2023-02-05T05:07:09;7.40;;;3.60;;
2001;SDS011;1003;48.002;7.788;2023-02-05T05:09:36;8.37;;;3.17;;
2001;SDS011;1003;48.002;7.788;2023-02-05T05:12:05;7.67;;;3.40;;
2001;SDS011;1003;48.002;7.788;2023-02-05T05:14:32;7.83;;;3.00;;
2001;SDS011;1003;48.002;7.788;2023-02-05T05:16:59;6.00;;;3.10;;
2001;SDS011;1003;48.002;7.788;2023-02-05T05:19:26;7.37;;;3.40;;
2001;SDS011;1003;48.002;7.788;2023-02-05T05:21:53;10.67;;;3.87;;
2001;SDS011;1003;48.002;7.788;2023-02-05T05:24:20;7.20;;;3.77;;
2001;SDS011;1003;48.002;7.788;2023-02-05T05:26:47;6.93;;;3.73;;
2001;SDS011;1003;48.002;7.788;2023-02-05T05:29:16;8.90;;;4.47;;
2001;SDS011;1003;48.002;7.788;2023-02-05T05:31:43;5.67;;;3.80;;
2001;SDS011;1003;48.002;7.788;2023-02-05T05:34:09;8.07;;;4.50;;
2001;SDS011;1003;48.002;7.788;2023-02-05T05:36:36;6.87;;;4.30;;
2001;SDS011;1003;48.002;7.788;2023-02-05T05:39:07;8.13;;;3.77;;
2001;SDS011;1003;48.002;7.788;2023-02-05T05:41:51;7.63;;;3.77;;
2001;SDS011;1003;48.002;7.788;2023-02-05T05:44:38;7.60;;;3.80;;
2001;SDS011;1003;48.002;7.788;2023-02-05T05:47:04;7.23;;;3.97;;
2001;SDS011;1003;48.002;7.788;2023-02-05T05:49:31;5.67;;;3.47;;
2001;SDS011;1003;48.002;7.788;2023-02-05T05:51:58;9.33;;;3.83;;
2001;SDS011;1003;48.002;7.788;2023-02-05T05:54:26;5.73;;;3.77;;
2001;SDS011;1003;48.002;7.788;2023-02-05T05:56:53;6.80;;;3.57;;
2001;SDS011;1003;48.002;7.788;2023-02-05T05:59:20;11.90;;;4.10;;
2001;SDS011;1003;48.002;7.788;2023-02-05T06:01:48;8.03;;;4.47;;
2001;SDS011;1003;48.002;7.788;2023-02-05T06:04:15;7.53;;;3.80;;
2001;SDS011;1003;48.002;7.788;2023-02-05T06:06:42;7.50;;;4.03;;
2001;SDS011;1003;48.002;7.788;2023-02-05T06:09:09;7.97;;;4.43;;
2001;SDS011;1003;48.002;7.788;2023-02-05T06:11:36;9.10;;;4.93;;
2001;SDS011;1003;48.002;7.788;2023-02-05T06:14:03;10.27;;;5.37;;
2001;SDS011;1003;48.002;7.788;2023-02-05T06:16:30;9.20;;;5.03;;
2001;SDS011;1003;48.002;7.788;2023-02-05T06:18:58;9.00;;;5.17;;
2001;SDS011;1003;48.002;7.788;2023-02-05T06:21:25;10.87;;;5.20;;
2001;SDS011;1003;48.002;7.788;2023-02-05T06:23:52;10.37;;;5.03;;
2001;SDS011;1003;48.002;7.788;2023-02-05T06:26:19;9.73;;;4.50;;
2001;SDS011;1003;48.002;7.788;2023-02-05T06:28:46;9.30;;;4.90;;
2001;SDS011;1003;48.002;7.788;2023-02-05T06:31:13;9.27;;;5.10;;
2001;SDS011;1003;48.002;7.788;2023-02-05T06:33:41;9.73;;;5.27;;
2001;SDS011;1003;48.002;7.788;2023-02-05T06:36:09;9.97;;;5.50;;
2001;SDS011;1003;48.002;7.788;2023-02-05T06:38:36;9.27;;;5.60;;
2001;SDS011;1003;48.002;7.788;2023-02-05T06:41:03;7.83;;;5.10;;
2001;SDS011;1003;48.002;7.788;2023-02-05T06:43:31;9.50;;;4.97;;
2001;SDS011;1003;48.002;7.788;2023-02-05T06:45:58;8.60;;;4.77;;
2001;SDS011;1003;48.002;7.788;2023-02-05T06:48:25;7.83;;;4.80;;
2001;SDS011;1003;48.002;7.788;2023-02-05T06:50:52;9.60;;;4.80;;
2001;SDS011;1003;48.002;7.788;2023-02-05T06:53:20;7.87;;;4.93;;
2001;SDS011;1003;48.002;7.788;2023-02-05T06:55:47;8.10;;;4.70;;
2001;SDS011;1003;48.002;7.788;2023-02-05T06:58:14;7.87;;;4.90;;
2001;SDS011;1003;48.002;7.788;2023-02-05T07:00:41;11.30;;;5.00;;
2001;SDS011;1003;48.002;7.788;2023-02-05T07:03:08;10.17;;;5.40;;
2001;SDS011;1003;48.002;7.788;2023-02-05T07:05:35;10.90;;;5.37;;
2001;SDS011;1003;48.002;7.788;2023-02-05T07:08:02;7.30;;;5.03;;
2001;SDS011;1003;48.002;7.788;2023-02-05T07:10:32;10.17;;;5.10;;
2001;SDS011;1003;48.002;7.788;2023-02-05T07:12:59;11.93;;;5.37;;
2001;SDS011;1003;48.002;7.788;2023-02-05T07:15:26;8.10;;;4.73;;
2001;SDS011;1003;48.002;7.788;2023-02-05T07:17:53;10.23;;;5.30;;
2001;SDS011;1003;48.002;7.788;2023-02-05T07:20:20;11.63;;;5.20;;
2001;SDS011;1003;48.002;7.788;2023-02-05T07:22:47;9.17;;;5.20;;
2001;SDS011;1003;48.002;7.788;2023-02-05T07:25:14;10.73;;;5.47;;
2001;SDS011;1003;48.002;7.788;2023-02-05T07:27:43;7.87;;;4.40;;
2001;SDS011;1003;48.002;7.788;2023-02-05T07:30:10;9.97;;;5.33;;
2001;SDS011;1003;48.002;7.788;2023-02-05T07:32:39;8.77;;;4.53;;
2001;SDS011;1003;48.002;7.788;2023-02-05T07:35:06;11.03;;;5.10;;
2001;SDS011;1003;48.002;7.788;2023-02-05T07:37:33;10.60;;;4.90;;
2001;SDS011;1003;48.002;7.788;2023-02-05T07:40:03;7.30;;;4.50;;
2001;SDS011;1003;48.002;7.788;2023-02-05T07:42:32;9.60;;;5.10;;
2001;SDS011;1003;48.002;7.788;2023-02-05T07:45:00;6.23;;;4.43;;
2001;SDS011;1003;48.002;7.788;2023-02-05T07:47:27;7.87;;;5.00;;
2001;SDS011;1003;48.002;7.788;2023-02-05T07:49:54;10.67;;;5.10;;
2001;SDS011;1003;48.002;7.788;2023-02-05T07:52:21;7.40;;;4.53;;
2001;SDS011;1003;48.002;7.788;2023-02-05T07:54:49;8.70;;;4.97;;
2001;SDS011;1003;48.002;7.788;2023-02-05T07:57:16;7.10;;;4.33;;
2001;SDS011;1003;48.002;7.788;2023-02-05T07:59:43;7.80;;;5.03;;
2001;SDS011;1003;48.002;7.788;2023-02-05T08:02:11;11.20;;;5.53;;
2001;SDS011;1003;48.002;7.788;2023-02-05T08:04:38;10.60;;;6.40;;
2001;SDS011;1003;48.002;7.788;2023-02-05T08:07:05;14.33;;;6.87;;
2001;SDS011;1003;48.002;7.788;2023-02-05T08:09:32;18.23;;;8.37;;
2001;SDS011;1003;48.002;7.788;2023-02-05T08:12:01;16.80;;;8.63;;
2001;SDS011;1003;48.002;7.788;2023-02-05T08:14:28;16.87;;;8.27;;
2001;SDS011;1003;48.002;7.788;2023-02-05T08:16:55;17.07;;;8.90;;
2001;SDS011;1003;48.002;7.788;2023-02-05T08:19:24;16.73;;;9.40;;
2001;SDS011;1003;48.002;7.788;2023-02-05T08:21:52;21.53;;;9.20;;
2001;SDS011;1003;48.002;7.788;2023-02-05T08:24:19;18.23;;;10.43;;
2001;SDS011;1003;48.002;7.788;2023-02-05T08:26:46;19.00;;;9.87;;
2001;SDS011;1003;48.002;7.788;2023-02-05T08:29:13;18.80;;;9.40;;
2001;SDS011;1003;48.002;7.788;2023-02-05T08:31:40;19.40;;;9.47;;
2001;SDS011;1003;48.002;7.788;2023-02-05T08:34:07;17.97;;;9.17;;
2001;SDS011;1003;48.002;7.788;2023-02-05T08:36:35;14.27;;;8.90;;
2001;SDS011;1003;48.002;7.788;2023-02-05T08:39:02;13.70;;;7.57;;
2001;SDS011;1003;48.002;7.788;2023-02-05T08:41:29;13.23;;;7.47;;
2001;SDS011;1003;48.002;7.788;2023-02-05T08:43:56;13.40;;;8.20;;
2001;SDS011;1003;48.002;7.788;2023-02-05T08:46:24;17.90;;;9.67;;
2001;SDS011;1003;48.002;7.788;2023-02-05T08:48:51;17.67;;;8.90;;
2001;SDS011;1003;48.002;7.788;2023-02-05T08:51:19;16.00;;;10.00;;
2001;SDS011;1003;48.002;7.788;2023-02-05T08:53:49;17.83;;;9.87;;
2001;SDS011;1003;48.002;7.788;2023-02-05T08:56:16;20.93;;;10.30;;
2001;SDS011;1003;48.002;7.788;2023-02-05T08:58:43;17.50;;;9.10;;
2001;SDS011;1003;48.002;7.788;2023-02-05T09:01:11;17.80;;;8.10;;
2001;SDS011;1003;48.002;7.788;2023-02-05T09:03:41;17.63;;;9.10;;
2001;SDS011;1003;48.002;7.788;2023-02-05T09:06:09;18.23;;;9.17;;
2001;SDS011;1003;48.002;7.788;2023-02-05T09:08:39;15.60;;;9.20;;
2001;SDS011;1003;48.002;7.788;2023-02-05T09:11:08;18.80;;;9.60;;
2001;SDS011;1003;48.002;7.788;2023-02-05T09:13:37;16.20;;;8.70;;
2001;SDS011;1003;48.002;7.788;2023-02-05T09:16:05;19.23;;;8.77;;
2001;SDS011;1003;48.002;7.788;2023-02-05T09:18:35;18.83;;;10.23;;
2001;SDS011;1003;48.002;7.788;2023-02-05T09:21:04;17.63;;;9.27;;
2001;SDS011;1003;48.002;7.788;2023-02-05T09:23:33;23.30;;;10.67;;
2001;SDS011;1003;48.002;7.788;2023-02-05T09:26:01;21.57;;;11.60;;
2001;SDS011;1003;48.002;7.788;2023-02-05T09:28:30;22.90;;;13.23;;
2001;SDS011;1003;48.002;7.788;2023-02-05T09:30:57;24.70;;;13.07;;
2001;SDS011;1003;48.002;7.788;2023-02-05T09:33:31;18.10;;;11.43;;
2001;SDS011;1003;48.002;7.788;2023-02-05T09:36:03;23.27;;;12.13;;
2001;SDS011;1003;48.002;7.788;2023-02-05T09:38:31;19.23;;;10.23;;
2001;SDS011;1003;48.002;7.788;2023-02-05T09:41:00;17.70;;;9.33;;
2001;SDS011;1003;48.002;7.788;2023-02-05T09:43:39;17.97;;;10.33;;
2001;SDS011;1003;48.002;7.788;2023-02-05T09:46:16;20.57;;;11.03;;
2001;SDS011;1003;48.002;7.788;2023-02-05T09:48:53;18.13;;;9.67;;
2001;SDS011;1003;48.002;7.788;2023-02-05T09:51:29;26.80;;;15.87;;
2001;SDS011;1003;48.002;7.788;2023-02-05T09:54:02;19.23;;;11.37;;
2001;SDS011;1003;48.002;7.788;2023-02-05T09:56:41;18.20;;;9.87;;
2001;SDS011;1003;48.002;7.788;2023-02-05T09:59:11;15.00;;;9.03;;
2001;SDS011;1003;48.002;7.788;2023-02-05T10:01:43;15.70;;;9.33;;
2001;SDS011;1003;48.002;7.788;2023-02-05T10:04:16;17.10;;;10.23;;
2001;SDS011;1003;48.002;7.788;2023-02-05T10:09:51;20.13;;;10.77;;
2001;SDS011;1003;48.002;7.788;2023-02-05T10:12:52;18.47;;;10.40;;
2001;SDS011;1003;48.002;7.788;2023-02-05T10:15:55;18.57;;;10.03;;
2001;SDS011;1003;48.002;7.788;2023-02-05T10:19:31;16.43;;;9.03;;
2001;SDS011;1003;48.002;7.788;2023-02-05T10:22:27;18.30;;;9.07;;
2001;SDS011;1003;48.002;7.788;2023-02-05T10:25:22;17.87;;;10.23;;
2001;SDS011;1003;48.002;7.788;2023-02-05T10:28:36;19.80;;;10.67;;
2001;SDS011;1003;48.002;7.788;2023-02-05T10:31:26;18.37;;;10.20;;
2001;SDS011;1003;48.002;7.788;2023-02-05T10:34:17;16.63;;;8.73;;
2001;SDS011;1003;48.002;7.788;2023-02-05T10:37:00;13.67;;;7.83;;
2001;SDS011;1003;48.002;7.788;2023-02-05T10:39:31;16.23;;;7.80;;
2001;SDS011;1003;48.002;7.788;2023-02-05T10:41:59;18.00;;;7.33;;
2001;SDS011;1003;48.002;7.788;2023-02-05T10:44:37;15.50;;;8.03;;
2001;SDS011;1003;48.002;7.788;2023-02-05T10:47:12;16.43;;;8.10;;
2001;SDS011;1003;48.002;7.788;2023-02-05T10:49:49;14.00;;;8.17;;
2001;SDS011;1003;48.002;7.788;2023-02-05T10:52:22;16.67;;;8.03;;
2001;SDS011;1003;48.002;7.788;2023-02-05T10:54:49;17.33;;;7.63;;
2001;SDS011;1003;48.002;7.788;2023-02-05T10:57:17;15.93;;;8.27;;
2001;SDS011;1003;48.002;7.788;2023-02-05T10:59:48;12.43;;;6.93;;
2001;SDS011;1003;48.002;7.788;2023-02-05T11:02:31;14.57;;;7.60;;
2001;SDS011;1003;48.002;7.788;2023-02-05T11:05:05;17.33;;;7.87;;
2001;SDS011;1003;48.002;7.788;2023-02-05T11:07:43;16.30;;;7.90;;
2001;SDS011;1003;48.002;7.788;2023-02-05T11:10:14;19.13;;;8.63;;
2001;SDS011;1003;48.002;7.788;2023-02-05T11:12:44;13.80;;;7.30;;
2001;SDS011;1003;48.002;7.788;2023-02-05T11:15:17;18.53;;;9.13;;
2001;SDS011;1003;48.002;7.788;2023-02-05T11:17:53;13.47;;;7.87;;
2001;SDS011;1003;48.002;7.788;2023-02-05T11:20:26;17.73;;;8.00;;
2001;SDS011;1003;48.002;7.788;2023-02-05T11:23:03;25.90;;;13.10;;
2001;SDS011;1003;48.002;7.788;2023-02-05T11:25:34;16.27;;;9.17;;
2001;SDS011;1003;48.002;7.788;2023-02-05T11:28:01;18.93;;;8.37;;
2001;SDS011;1003;48.002;7.788;2023-02-05T11:30:30;14.63;;;8.30;;
2001;SDS011;1003;48.002;7.788;2023-02-05T11:33:15;14.60;;;7.60;;
2001;SDS011;1003;48.002;7.788;2023-02-05T11:35:49;11.97;;;7.60;;
2001;SDS011;1003;48.002;7.788;2023-02-05T11:38:23;15.77;;;7.73;;
2001;SDS011;1003;48.002;7.788;2023-02-05T11:40:57;13.03;;;7.13;;
2001;SDS011;1003;48.002;7.788;2023-02-05T11:43:29;15.33;;;7.60;;
2001;SDS011;1003;48.002;7.788;2023-02-05T11:45:58;15.63;;;8.20;;
2001;SDS011;1003;48.002;7.788;2023-02-05T11:48:36;14.87;;;7.43;;
2001;SDS011;1003;48.002;7.788;2023-02-05T11:51:08;13.57;;;7.23;;
2001;SDS011;1003;48.002;7.788;2023-02-05T11:53:42;14.07;;;7.07;;
2001;SDS011;1003;48.002;7.788;2023-02-05T11:56:18;15.73;;;9.13;;
2001;SDS011;1003;48.002;7.788;2023-02-05T11:58:56;14.87;;;7.57;;
2001;SDS011;1003;48.002;7.788;2023-02-05T12:01:25;13.30;;;7.20;;
2001;SDS011;1003;48.002;7.788;2023-02-05T12:03:59;14.97;;;8.23;;
2001;SDS011;1003;48.002;7.788;2023-02-05T12:06:30;12.77;;;7.53;;
2001;SDS011;1003;48.002;7.788;2023-02-05T12:09:07;15.57;;;8.70;;
2001;SDS011;1003;48.002;7.788;2023-02-05T12:11:45;13.33;;;7.43;;
2001;SDS011;1003;48.002;7.788;2023-02-05T12:14:41;15.47;;;7.77;;
2001;SDS011;1003;48.002;7.788;2023-02-05T12:17:18;15.43;;;8.03;;
2001;SDS011;1003;48.002;7.788;2023-02-05T12:20:18;15.13;;;6.93;;
2001;SDS011;1003;48.002;7.788;2023-02-05T12:23:06;13.90;;;7.00;;
2001;SDS011;1003;48.002;7.788;2023-02-05T12:26:01;16.80;;;7.90;;
2001;SDS011;1003;48.002;7.788;2023-02-05T12:28:52;13.60;;;7.87;;
2001;SDS011;1003;48.002;7.788;2023-02-05T12:31:44;17.93;;;8.07;;
2001;SDS011;1003;48.002;7.788;2023-02-05T12:34:26;15.83;;;8.20;;
2001;SDS011;1003;48.002;7.788;2023-02-05T12:37:11;17.73;;;8.57;;
2001;SDS011;1003;48.002;7.788;2023-02-05T12:39:52;18.90;;;9.90;;
2001;SDS011;1003;48.002;7.788;2023-02-05T12:42:28;15.43;;;8.20;;
2001;SDS011;1003;48.002;7.788;2023-02-05T12:45:07;14.27;;;7.77;;
2001;SDS011;1003;48.002;7.788;2023-02-05T12:48:03;18.17;;;8.77;;
2001;SDS011;1003;48.002;7.788;2023-02-05T12:50:52;13.53;;;7.70;;
2001;SDS011;1003;48.002;7.788;2023-02-05T12:53:42;14.68;;;7.20;;
2001;SDS011;1003;48.002;7.788;2023-02-05T12:56:34;17.67;;;9.30;;
2001;SDS011;1003;48.002;7.788;2023-02-05T12:59:21;14.67;;;7.17;;
2001;SDS011;1003;48.002;7.788;2023-02-05T13:02:03;14.90;;;6.57;;
2001;SDS011;1003;48.002;7.788;2023-02-05T13:04:43;14.00;;;7.20;;
2001;SDS011;1003;48.002;7.788;2023-02-05T13:07:20;9.30;;;5.87;;
2001;SDS011;1003;48.002;7.788;2023-02-05T13:09:58;10.57;;;5.83;;
2001;SDS011;1003;48.002;7.788;2023-02-05T13:12:31;12.03;;;5.10;;
2001;SDS011;1003;48.002;7.788;2023-02-05T13:15:04;12.13;;;6.00;;
2001;SDS011;1003;48.002;7.788;2023-02-05T13:17:44;9.70;;;5.13;;
2001;SDS011;1003;48.002;7.788;2023-02-05T13:20:27;8.77;;;5.47;;
2001;SDS011;1003;48.002;7.788;2023-02-05T13:23:18;10.97;;;5.80;;
2001;SDS011;1003;48.002;7.788;2023-02-05T13:26:05;11.50;;;5.87;;
2001;SDS011;1003;48.002;7.788;2023-02-05T13:28:55;13.97;;;6.33;;
2001;SDS011;1003;48.002;7.788;2023-02-05T13:31:27;11.47;;;6.20;;
2001;SDS011;1003;48.002;7.788;2023-02-05T13:34:03;13.23;;;6.90;;
2001;SDS011;1003;48.002;7.788;2023-02-05T13:39:50;13.40;;;6.93;;
2001;SDS011;1003;48.002;7.788;2023-02-05T13:42:51;11.50;;;6.80;;
2001;SDS011;1003;48.002;7.788;2023-02-05T13:49:28;10.00;;;6.27;;
2001;SDS011;1003;48.002;7.788;2023-02-05T13:52:32;12.07;;;7.17;;
2001;SDS011;1003;48.002;7.788;2023-02-05T13:55:35;18.10;;;10.30;;
2001;SDS011;1003;48.002;7.788;2023-02-05T13:58:21;19.50;;;9.50;;
2001;SDS011;1003;48.002;7.788;2023-02-05T14:00:57;14.60;;;8.17;;
2001;SDS011;1003;48.002;7.788;2023-02-05T14:03:29;12.40;;;7.27;;
2001;SDS011;1003;48.002;7.788;2023-02-05T14:08:49;12.90;;;7.07;;
2001;SDS011;1003;48.002;7.788;2023-02-05T14:11:24;16.13;;;8.00;;
2001;SDS011;1003;48.002;7.788;2023-02-05T14:16:59;12.07;;;7.30;;
2001;SDS011;1003;48.002;7.788;2023-02-05T14:22:32;12.17;;;6.57;;
2001;SDS011;1003;48.002;7.788;2023-02-05T14:25:08;11.50;;;6.67;;
2001;SDS011;1003;48.002;7.788;2023-02-05T14:28:33;12.70;;;6.50;;
2001;SDS011;1003;48.002;7.788;2023-02-05T14:34:32;15.50;;;7.83;;
2001;SDS011;1003;48.002;7.788;2023-02-05T14:37:23;18.63;;;7.60;;
2001;SDS011;1003;48.002;7.788;2023-02-05T14:40:11;15.27;;;7.70;;
2001;SDS011;1003;48.002;7.788;2023-02-05T14:42:54;19.23;;;8.43;;
2001;SDS011;1003;48.002;7.788;2023-02-05T14:45:27;17.33;;;7.77;;
2001;SDS011;1003;48.002;7.788;2023-02-05T14:47:56;15.43;;;8.43;;
2001;SDS011;1003;48.002;7.788;2023-02-05T14:50:24;16.67;;;8.90;;
2001;SDS011;1003;48.002;7.788;2023-02-05T14:52:55;12.20;;;7.40;;
2001;SDS011;1003;48.002;7.788;2023-02-05T14:55:26;13.23;;;7.00;;
2001;SDS011;1003;48.002;7.788;2023-02-05T14:58:01;15.73;;;8.43;;
2001;SDS011;1003;48.002;7.788;2023-02-05T15:00:34;14.33;;;7.10;;
2001;SDS011;1003;48.002;7.788;2023-02-05T15:03:17;15.10;;;7.07;;
2001;SDS011;1003;48.002;7.788;2023-02-05T15:05:54;16.83;;;7.43;;
2001;SDS011;1003;48.002;7.788;2023-02-05T15:08:44;14.33;;;7.07;;
2001;SDS011;1003;48.002;7.788;2023-02-05T15:11:25;17.57;;;7.90;;
2001;SDS011;1003;48.002;7.788;2023-02-05T15:14:24;17.13;;;7.93;;
2001;SDS011;1003;48.002;7.788;2023-02-05T15:20:24;16.77;;;8.13;;
2001;SDS011;1003;48.002;7.788;2023-02-05T15:22:59;14.67;;;7.90;;
2001;SDS011;1003;48.002;7.788;2023-02-05T15:25:37;14.00;;;7.80;;
2001;SDS011;1003;48.002;7.788;2023-02-05T15:28:16;14.83;;;7.63;;
2001;SDS011;1003;48.002;7.788;2023-02-05T15:30:53;18.77;;;9.93;;
2001;SDS011;1003;48.002;7.788;2023-02-05T15:33:37;18.03;;;10.13;;
2001;SDS011;1003;48.002;7.788;2023-02-05T15:36:18;17.93;;;9.13;;
2001;SDS011;1003;48.002;7.788;2023-02-05T15:38:59;15.20;;;8.10;;
2001;SDS011;1003;48.002;7.788;2023-02-05T15:41:37;14.30;;;8.20;;
2001;SDS011;1003;48.002;7.788;2023-02-05T15:44:18;16.27;;;8.73;;
2001;SDS011;1003;48.002;7.788;2023-02-05T15:46:49;20.42;;;10.70;;
2001;SDS011;1003;48.002;7.788;2023-02-05T15:49:18;29.97;;;16.37;;
2001;SDS011;1003;48.002;7.788;2023-02-05T15:51:57;22.05;;;12.43;;
2001;SDS011;1003;48.002;7.788;2023-02-05T15:54:25;18.57;;;9.30;;
2001;SDS011;1003;48.002;7.788;2023-02-05T15:56:53;14.87;;;7.30;;
2001;SDS011;1003;48.002;7.788;2023-02-05T15:59:22;14.33;;;9.60;;
2001;SDS011;1003;48.002;7.788;2023-02-05T16:01:58;13.07;;;7.23;;
2001;SDS011;1003;48.002;7.788;2023-02-05T16:04:31;12.33;;;7.83;;
2001;SDS011;1003;48.002;7.788;2023-02-05T16:07:02;16.07;;;8.70;;
2001;SDS011;1003;48.002;7.788;2023-02-05T16:09:46;15.50;;;8.57;;
2001;SDS011;1003;48.002;7.788;2023-02-05T16:12:17;14.97;;;8.10;;
2001;SDS011;1003;48.002;7.788;2023-02-05T16:14:44;13.03;;;6.70;;